Time;durP1;ratioP1;P1;durP2;ratioP2;P2;SDS_P1;SDS_P2;PMS_P1;PMS_P2;Temp;Humidity;BMP_temperature;BMP_pressure;BME280_temperature;BME280_humidity;BME280_pressure;Samples;Min_cycle;Max_cycle;Signal;HPM_P1;HPM_P2
2023/06/12 00:03:30;;;;;;;9.65;5.63;;;;;;;;;;10409230;28;20029;-80
2023/06/12 00:08:31;;;;;;;8.97;5.40;;;;;;;;;;10393940;28;20036;-82
2023/06/12 00:13:31;;;;;;;12.43;5.00;;;;;;;;;;10387058;28;20677;-83
2023/06/12 00:18:32;;;;;;;7.75;4.57;;;;;;;;;;10418509;28;20072;-83
2023/06/12 00:23:33;;;;;;;9.10;4.80;;;;;;;;;;10405744;28;20033;-82
2023/06/12 00:28:33;;;;;;;7.82;5.55;;;;;;;;;;10402833;28;20033;-80
2023/06/12 00:33:34;;;;;;;10.93;4.60;;;;;;;;;;10404605;28;20034;-76
2023/06/12 00:38:35;;;;;;;8.95;5.03;;;;;;;;;;10402360;28;20076;-77
2023/06/12 00:43:35;;;;;;;7.22;4.60;;;;;;;;;;10401556;28;20087;-76
2023/06/12 00:48:35;;;;;;;5.87;4.43;;;;;;;;;;10401932;28;20410;-74
2023/06/12 00:53:36;;;;;;;5.73;4.57;;;;;;;;;;10401555;28;20389;-79
2023/06/12 00:58:36;;;;;;;10.23;5.25;;;;;;;;;;10404671;28;20057;-79
2023/06/12 01:03:38;;;;;;;8.45;5.05;;;;;;;;;;10401976;28;20466;-76
2023/06/12 01:09:00;;;;;;;10.02;6.10;;;;;;;;;;10403412;28;20029;-85
2023/06/12 01:14:02;;;;;;;9.77;5.45;;;;;;;;;;10401858;28;20468;-78
2023/06/12 01:19:03;;;;;;;7.43;5.03;;;;;;;;;;10400485;28;20017;-77
2023/06/12 01:24:28;;;;;;;12.07;5.88;;;;;;;;;;10402364;28;20106;-78
2023/06/12 01:29:46;;;;;;;12.05;5.82;;;;;;;;;;10400679;28;20017;-83
2023/06/12 01:34:51;;;;;;;15.88;6.55;;;;;;;;;;10399635;28;20053;-83
2023/06/12 01:39:58;;;;;;;11.82;5.20;;;;;;;;;;10400921;28;20049;-80
2023/06/12 01:44:58;;;;;;;9.32;5.85;;;;;;;;;;10400952;28;20022;-80
2023/06/12 01:49:59;;;;;;;11.77;5.97;;;;;;;;;;10400270;28;20029;-79
2023/06/12 01:55:00;;;;;;;10.27;6.05;;;;;;;;;;10399395;28;20060;-77
2023/06/12 02:00:01;;;;;;;8.50;5.57;;;;;;;;;;10399266;28;20013;-81
2023/06/12 02:05:01;;;;;;;9.17;5.50;;;;;;;;;;10398867;28;20021;-77
2023/06/12 02:10:02;;;;;;;9.68;6.10;;;;;;;;;;10398282;28;20021;-78
2023/06/12 02:15:02;;;;;;;11.93;5.50;;;;;;;;;;10398889;28;20421;-77
2023/06/12 02:20:04;;;;;;;12.70;6.60;;;;;;;;;;10400178;28;20018;-80
2023/06/12 02:25:04;;;;;;;12.48;6.45;;;;;;;;;;10408260;28;20397;-78
2023/06/12 02:30:05;;;;;;;13.20;6.13;;;;;;;;;;10410917;28;20028;-75
2023/06/12 02:35:08;;;;;;;12.10;5.32;;;;;;;;;;10425019;28;20064;-75
2023/06/12 02:40:09;;;;;;;12.18;5.35;;;;;;;;;;10405377;28;20022;-77
2023/06/12 02:45:09;;;;;;;19.42;6.32;;;;;;;;;;10399638;28;20026;-78
2023/06/12 02:50:10;;;;;;;10.25;5.65;;;;;;;;;;10415884;28;20026;-82
2023/06/12 02:55:11;;;;;;;8.52;5.28;;;;;;;;;;10438211;28;20021;-74
2023/06/12 03:00:15;;;;;;;12.32;6.13;;;;;;;;;;10437128;28;20040;-80
2023/06/12 03:05:15;;;;;;;8.35;5.18;;;;;;;;;;10415306;28;20029;-82
2023/06/12 03:10:15;;;;;;;11.37;5.07;;;;;;;;;;10405328;28;20030;-79
2023/06/12 03:15:16;;;;;;;11.60;5.15;;;;;;;;;;10398160;28;20524;-79
2023/06/12 03:20:17;;;;;;;13.00;5.20;;;;;;;;;;10405837;28;20060;-81
2023/06/12 03:25:18;;;;;;;8.60;4.80;;;;;;;;;;10413473;28;20485;-81
2023/06/12 03:30:19;;;;;;;14.68;5.25;;;;;;;;;;10416552;28;20017;-77
2023/06/12 03:35:20;;;;;;;11.23;5.43;;;;;;;;;;10413695;28;20050;-79
2023/06/12 03:40:20;;;;;;;14.57;5.15;;;;;;;;;;10409808;28;20500;-77
2023/06/12 03:45:20;;;;;;;15.27;5.83;;;;;;;;;;10420425;28;20021;-81
2023/06/12 03:50:22;;;;;;;11.63;5.40;;;;;;;;;;10423844;23;20064;-78
2023/06/12 03:55:23;;;;;;;10.80;6.05;;;;;;;;;;10400792;28;20106;-78
2023/06/12 04:00:25;;;;;;;11.35;6.00;;;;;;;;;;10405406;28;20048;-82
2023/06/12 04:05:26;;;;;;;12.25;5.97;;;;;;;;;;10385757;28;20033;-78
2023/06/12 04:10:26;;;;;;;14.43;5.95;;;;;;;;;;10396047;28;20041;-79
2023/06/12 04:15:28;;;;;;;9.87;6.03;;;;;;;;;;10388075;28;20412;-78
2023/06/12 04:20:32;;;;;;;15.80;7.35;;;;;;;;;;10364824;28;20117;-79
2023/06/12 04:25:32;;;;;;;9.88;6.60;;;;;;;;;;10377152;28;20056;-79
2023/06/12 04:30:33;;;;;;;14.27;6.22;;;;;;;;;;10380366;28;20508;-79
2023/06/12 04:35:34;;;;;;;22.08;6.32;;;;;;;;;;10392923;28;20113;-83
2023/06/12 04:40:35;;;;;;;8.77;6.00;;;;;;;;;;10402241;28;20017;-77
2023/06/12 04:45:36;;;;;;;12.88;7.30;;;;;;;;;;10413167;28;20041;-78
2023/06/12 04:50:36;;;;;;;13.98;7.03;;;;;;;;;;10400273;28;20100;-84
2023/06/12 04:55:37;;;;;;;11.23;6.70;;;;;;;;;;10397138;28;20032;-80
2023/06/12 05:00:39;;;;;;;15.48;7.68;;;;;;;;;;10397035;28;20036;-78
2023/06/12 05:05:40;;;;;;;14.73;6.80;;;;;;;;;;10398495;28;20060;-77
2023/06/12 05:10:40;;;;;;;13.88;6.07;;;;;;;;;;10396526;28;20601;-78
2023/06/12 05:15:41;;;;;;;10.07;5.77;;;;;;;;;;10395774;28;20029;-78
2023/06/12 05:20:41;;;;;;;13.90;5.75;;;;;;;;;;10398567;28;20056;-79
2023/06/12 05:25:42;;;;;;;18.27;5.90;;;;;;;;;;10398938;28;20049;-78
2023/06/12 05:30:44;;;;;;;10.60;5.55;;;;;;;;;;10400115;28;20120;-81
2023/06/12 05:35:44;;;;;;;15.23;5.95;;;;;;;;;;10363705;28;20513;-76
2023/06/12 05:40:44;;;;;;;13.60;5.10;;;;;;;;;;10376348;28;20036;-81
2023/06/12 05:45:45;;;;;;;15.70;6.75;;;;;;;;;;10405059;28;20085;-78
2023/06/12 05:50:45;;;;;;;9.75;5.50;;;;;;;;;;10398752;28;20053;-78
2023/06/12 05:55:45;;;;;;;13.18;5.82;;;;;;;;;;10397851;28;20056;-78
2023/06/12 06:00:47;;;;;;;14.52;5.15;;;;;;;;;;10399789;28;20384;-79
2023/06/12 06:05:48;;;;;;;15.23;5.88;;;;;;;;;;10410155;28;20021;-78
2023/06/12 06:10:49;;;;;;;8.70;4.97;;;;;;;;;;10397560;28;20017;-77
2023/06/12 06:15:49;;;;;;;13.43;4.90;;;;;;;;;;10389959;28;20025;-78
2023/06/12 06:20:49;;;;;;;12.50;6.50;;;;;;;;;;10356856;28;20021;-79
2023/06/12 06:25:50;;;;;;;22.27;6.23;;;;;;;;;;10381698;28;20033;-77
2023/06/12 06:30:51;;;;;;;8.57;5.30;;;;;;;;;;10376493;28;20077;-82
2023/06/12 06:35:51;;;;;;;9.32;5.00;;;;;;;;;;10361498;28;20021;-81
2023/06/12 06:40:53;;;;;;;11.20;5.75;;;;;;;;;;10397035;28;20462;-84
2023/06/12 06:45:53;;;;;;;12.50;5.13;;;;;;;;;;10387294;28;20076;-78
2023/06/12 06:50:54;;;;;;;15.23;5.43;;;;;;;;;;10397765;28;20140;-82
2023/06/12 06:55:54;;;;;;;11.95;5.63;;;;;;;;;;10393125;28;20821;-78
2023/06/12 07:00:54;;;;;;;15.75;6.45;;;;;;;;;;10410653;28;20014;-85
2023/06/12 07:05:54;;;;;;;11.05;6.20;;;;;;;;;;10410785;28;20029;-79
2023/06/12 07:10:55;;;;;;;13.77;5.87;;;;;;;;;;10405987;28;20033;-81
2023/06/12 07:15:56;;;;;;;11.07;6.03;;;;;;;;;;10405352;28;20024;-80
2023/06/12 07:20:57;;;;;;;9.60;4.68;;;;;;;;;;10402419;28;20481;-80
2023/06/12 07:25:57;;;;;;;8.32;4.70;;;;;;;;;;10404927;28;20025;-77
2023/06/12 07:30:57;;;;;;;12.73;4.95;;;;;;;;;;10404401;28;20028;-79
2023/06/12 07:35:58;;;;;;;13.57;4.22;;;;;;;;;;10406337;28;20100;-78
2023/06/12 07:40:59;;;;;;;6.95;4.28;;;;;;;;;;10404082;28;20160;-77
2023/06/12 07:46:00;;;;;;;7.13;4.07;;;;;;;;;;10408311;28;20041;-78
2023/06/12 07:51:00;;;;;;;8.25;3.40;;;;;;;;;;10407316;28;20296;-79
2023/06/12 07:56:01;;;;;;;7.65;3.38;;;;;;;;;;10403848;28;20033;-79
2023/06/12 08:01:04;;;;;;;6.55;3.40;;;;;;;;;;10402448;28;20037;-79
2023/06/12 08:06:08;;;;;;;8.52;3.72;;;;;;;;;;10400530;28;20022;-79
2023/06/12 08:11:09;;;;;;;6.15;2.50;;;;;;;;;;10365102;28;20094;-82
2023/06/12 08:16:10;;;;;;;5.68;3.45;;;;;;;;;;10361513;28;20029;-81
2023/06/12 08:21:10;;;;;;;5.78;3.60;;;;;;;;;;10362808;28;20020;-80
2023/06/12 08:26:10;;;;;;;5.90;2.80;;;;;;;;;;10347179;28;20076;-78
2023/06/12 08:31:10;;;;;;;8.30;3.53;;;;;;;;;;10363479;28;20030;-77
2023/06/12 08:36:12;;;;;;;7.95;3.45;;;;;;;;;;10366332;28;20026;-76
2023/06/12 08:41:13;;;;;;;5.72;2.38;;;;;;;;;;10361453;28;20028;-78
2023/06/12 08:46:15;;;;;;;6.90;2.92;;;;;;;;;;10361455;28;20104;-78
2023/06/12 08:51:19;;;;;;;6.72;2.67;;;;;;;;;;10361885;28;20563;-82
2023/06/12 08:56:21;;;;;;;10.27;3.72;;;;;;;;;;10393831;28;20037;-79
2023/06/12 09:01:21;;;;;;;6.55;2.97;;;;;;;;;;10388473;28;20041;-78
2023/06/12 09:06:23;;;;;;;6.82;3.28;;;;;;;;;;10402266;28;20029;-80
2023/06/12 09:11:25;;;;;;;6.47;3.30;;;;;;;;;;10405291;28;20362;-84
2023/06/12 09:16:26;;;;;;;8.45;2.70;;;;;;;;;;10401657;28;20067;-76
2023/06/12 09:21:26;;;;;;;12.30;3.17;;;;;;;;;;10393805;28;20044;-86
2023/06/12 09:26:26;;;;;;;7.30;3.25;;;;;;;;;;10414177;28;20063;-81
2023/06/12 09:31:27;;;;;;;9.68;3.50;;;;;;;;;;10400322;28;20095;-78
2023/06/12 09:36:28;;;;;;;10.47;2.80;;;;;;;;;;10399297;28;20021;-77
2023/06/12 09:41:29;;;;;;;5.57;2.88;;;;;;;;;;10408777;28;20024;-78
2023/06/12 09:46:30;;;;;;;7.70;3.65;;;;;;;;;;10391452;28;20469;-77
2023/06/12 09:51:33;;;;;;;8.05;3.80;;;;;;;;;;10367412;28;20580;-84
2023/06/12 09:56:34;;;;;;;5.90;3.08;;;;;;;;;;10399813;28;20033;-78
2023/06/12 10:01:39;;;;;;;7.25;2.78;;;;;;;;;;10401327;28;20017;-80
2023/06/12 10:06:42;;;;;;;6.30;3.00;;;;;;;;;;10398590;28;20036;-77
2023/06/12 10:11:45;;;;;;;7.38;3.55;;;;;;;;;;10398226;28;20040;-79
2023/06/12 10:16:46;;;;;;;8.38;3.22;;;;;;;;;;10397812;28;20026;-76
2023/06/12 10:21:46;;;;;;;6.30;3.08;;;;;;;;;;10362987;28;20022;-79
2023/06/12 10:26:47;;;;;;;4.93;2.72;;;;;;;;;;10394097;28;20474;-77
2023/06/12 10:31:49;;;;;;;6.68;2.70;;;;;;;;;;10381482;28;20513;-78
2023/06/12 10:36:50;;;;;;;5.25;3.00;;;;;;;;;;10398784;28;20026;-79
2023/06/12 10:41:51;;;;;;;6.32;2.53;;;;;;;;;;10396844;28;20409;-77
2023/06/12 10:46:51;;;;;;;4.07;2.30;;;;;;;;;;10397272;28;20116;-76
2023/06/12 10:51:52;;;;;;;7.78;3.13;;;;;;;;;;10398002;28;20544;-77
2023/06/12 10:57:00;;;;;;;4.00;2.72;;;;;;;;;;10397232;28;20472;-77
2023/06/12 11:02:01;;;;;;;8.02;2.28;;;;;;;;;;10398103;28;20413;-78
2023/06/12 11:07:02;;;;;;;3.85;2.35;;;;;;;;;;10396318;28;20033;-76
2023/06/12 11:12:02;;;;;;;4.28;2.33;;;;;;;;;;10396814;28;20033;-78
2023/06/12 11:17:03;;;;;;;6.20;2.80;;;;;;;;;;10396827;28;20029;-77
2023/06/12 11:22:04;;;;;;;11.75;2.78;;;;;;;;;;10375119;28;20300;-77
2023/06/12 11:27:05;;;;;;;2.85;1.95;;;;;;;;;;10391200;28;20033;-80
2023/06/12 11:32:06;;;;;;;8.35;2.65;;;;;;;;;;10395920;28;20034;-76
2023/06/12 11:37:13;;;;;;;9.20;2.50;;;;;;;;;;10397307;28;20413;-79
2023/06/12 11:42:14;;;;;;;;;;;;;;;;;;10363352;28;20307;-79
2023/06/12 11:47:14;;;;;;;9.50;2.93;;;;;;;;;;10363595;28;19925;-76
2023/06/12 11:52:15;;;;;;;10.80;3.70;;;;;;;;;;10383635;28;20029;-75
2023/06/12 11:57:16;;;;;;;7.03;2.70;;;;;;;;;;10388803;28;20144;-76
2023/06/12 12:02:17;;;;;;;5.38;3.30;;;;;;;;;;10363003;28;20455;-75
2023/06/12 12:07:20;;;;;;;7.25;3.97;;;;;;;;;;10395265;28;20025;-74
2023/06/12 12:12:20;;;;;;;11.30;4.30;;;;;;;;;;10403001;28;20524;-76
2023/06/12 12:17:20;;;;;;;8.73;4.90;;;;;;;;;;10401731;28;20033;-76
2023/06/12 12:22:22;;;;;;;9.30;4.88;;;;;;;;;;10400666;28;20037;-76
2023/06/12 12:27:23;;;;;;;9.90;4.93;;;;;;;;;;10403038;28;20033;-77
2023/06/12 12:32:23;;;;;;;11.73;5.07;;;;;;;;;;10401976;28;20396;-83
2023/06/12 12:37:25;;;;;;;7.53;4.40;;;;;;;;;;10400852;28;20094;-76
2023/06/12 12:42:25;;;;;;;7.40;5.00;;;;;;;;;;10381172;28;20452;-78
2023/06/12 12:47:26;;;;;;;7.78;5.28;;;;;;;;;;10411492;28;20100;-73
2023/06/12 12:52:26;;;;;;;10.05;5.70;;;;;;;;;;10415351;28;20038;-77
2023/06/12 12:57:33;;;;;;;12.07;6.35;;;;;;;;;;10402284;28;20434;-85
2023/06/12 13:02:34;;;;;;;10.88;6.82;;;;;;;;;;10387743;28;20025;-76
2023/06/12 13:07:36;;;;;;;12.27;7.18;;;;;;;;;;10420432;28;20021;-78
2023/06/12 13:12:36;;;;;;;8.50;5.43;;;;;;;;;;10410842;28;20025;-75
2023/06/12 13:17:37;;;;;;;6.87;4.20;;;;;;;;;;10409813;28;20021;-78
2023/06/12 13:22:38;;;;;;;5.90;3.95;;;;;;;;;;10399235;28;20429;-77
2023/06/12 13:27:38;;;;;;;6.15;3.45;;;;;;;;;;10386170;28;20061;-80
2023/06/12 13:32:38;;;;;;;6.80;4.20;;;;;;;;;;10369439;28;20074;-77
2023/06/12 13:37:39;;;;;;;6.77;3.20;;;;;;;;;;10400204;28;20104;-76
2023/06/12 13:42:39;;;;;;;9.18;3.40;;;;;;;;;;10403144;28;20024;-78
2023/06/12 13:47:40;;;;;;;6.83;3.63;;;;;;;;;;10402667;28;20042;-75
2023/06/12 13:52:41;;;;;;;7.33;3.40;;;;;;;;;;10400487;28;20021;-76
2023/06/12 13:57:41;;;;;;;12.52;4.13;;;;;;;;;;10394388;28;20026;-74
2023/06/12 14:02:41;;;;;;;4.97;3.22;;;;;;;;;;10357389;28;20088;-77
2023/06/12 14:07:43;;;;;;;3.83;2.20;;;;;;;;;;10391809;28;20081;-77
2023/06/12 14:12:44;;;;;;;6.05;2.22;;;;;;;;;;10400743;28;20119;-79
2023/06/12 14:17:44;;;;;;;9.13;2.45;;;;;;;;;;10398566;28;20560;-80
2023/06/12 14:22:45;;;;;;;6.35;2.60;;;;;;;;;;10397759;28;20021;-74
2023/06/12 14:27:46;;;;;;;2.95;1.90;;;;;;;;;;10398346;28;20052;-75
2023/06/12 14:32:46;;;;;;;3.30;2.10;;;;;;;;;;10396666;28;20087;-75
2023/06/12 14:37:46;;;;;;;3.63;2.60;;;;;;;;;;10396168;28;20025;-74
2023/06/12 14:42:46;;;;;;;4.10;2.45;;;;;;;;;;10397181;28;20025;-76
2023/06/12 14:47:47;;;;;;;6.25;2.40;;;;;;;;;;10397522;28;20176;-74
2023/06/12 14:52:47;;;;;;;4.30;2.00;;;;;;;;;;10396037;28;20034;-76
2023/06/12 14:57:47;;;;;;;2.85;1.90;;;;;;;;;;10396203;28;20502;-77
2023/06/12 15:02:48;;;;;;;2.83;2.30;;;;;;;;;;10396061;28;20485;-76
2023/06/12 15:07:51;;;;;;;3.85;2.08;;;;;;;;;;10397583;28;20048;-81
2023/06/12 15:12:52;;;;;;;4.57;2.20;;;;;;;;;;10401210;28;20729;-79
2023/06/12 15:17:52;;;;;;;2.78;1.70;;;;;;;;;;10403548;28;20057;-77
2023/06/12 15:22:52;;;;;;;4.03;1.90;;;;;;;;;;10384625;28;20022;-76
2023/06/12 15:27:53;;;;;;;5.07;2.27;;;;;;;;;;10383873;28;20032;-75
2023/06/12 15:32:54;;;;;;;4.63;1.85;;;;;;;;;;10404823;28;20029;-77
2023/06/12 15:37:54;;;;;;;4.80;2.20;;;;;;;;;;10403769;28;20496;-75
2023/06/12 15:42:54;;;;;;;3.45;2.58;;;;;;;;;;10403646;28;20342;-81
2023/06/12 15:47:56;;;;;;;7.32;3.03;;;;;;;;;;10406135;28;20050;-79
2023/06/12 15:52:56;;;;;;;4.57;2.50;;;;;;;;;;10403965;28;20068;-78
2023/06/12 15:57:57;;;;;;;3.35;2.17;;;;;;;;;;10404394;28;20014;-80
2023/06/12 16:02:57;;;;;;;6.38;2.88;;;;;;;;;;10387693;28;20679;-77
2023/06/12 16:07:57;;;;;;;5.78;1.92;;;;;;;;;;10390629;28;20034;-75
2023/06/12 16:12:58;;;;;;;3.88;1.92;;;;;;;;;;10361597;28;20029;-76
2023/06/12 16:17:58;;;;;;;2.95;2.15;;;;;;;;;;10393345;28;20025;-80
2023/06/12 16:22:58;;;;;;;3.77;2.40;;;;;;;;;;10403317;28;20037;-76
2023/06/12 16:27:58;;;;;;;8.32;2.95;;;;;;;;;;10401684;28;20512;-76
2023/06/12 16:33:02;;;;;;;5.63;3.10;;;;;;;;;;10385288;28;20029;-78
2023/06/12 16:38:02;;;;;;;10.50;3.85;;;;;;;;;;10402022;28;20052;-81
2023/06/12 16:43:03;;;;;;;7.30;3.40;;;;;;;;;;10377368;28;20027;-81
2023/06/12 16:48:03;;;;;;;12.00;3.10;;;;;;;;;;10392169;28;20043;-76
2023/06/12 16:53:03;;;;;;;6.40;4.00;;;;;;;;;;10392923;28;20029;-77
2023/06/12 16:58:05;;;;;;;4.10;3.30;;;;;;;;;;10401098;28;20769;-75
2023/06/12 17:03:06;;;;;;;6.07;3.88;;;;;;;;;;10392374;28;20103;-78
2023/06/12 17:08:06;;;;;;;6.93;3.88;;;;;;;;;;10387088;28;20397;-76
2023/06/12 17:13:06;;;;;;;13.50;3.97;;;;;;;;;;10387130;28;20490;-82
2023/06/12 17:18:06;;;;;;;14.48;3.97;;;;;;;;;;10390270;28;20022;-78
2023/06/12 17:23:12;;;;;;;5.35;3.38;;;;;;;;;;10391755;28;20515;-78
2023/06/12 17:28:12;;;;;;;7.53;4.20;;;;;;;;;;10392899;28;20029;-82
2023/06/12 17:33:12;;;;;;;10.70;4.38;;;;;;;;;;10390804;28;20057;-76
2023/06/12 17:38:12;;;;;;;6.45;4.38;;;;;;;;;;10389324;28;20485;-77
2023/06/12 17:43:13;;;;;;;7.60;5.45;;;;;;;;;;10390841;28;20401;-76
2023/06/12 17:48:13;;;;;;;9.57;5.20;;;;;;;;;;10390768;28;20041;-76
2023/06/12 17:53:13;;;;;;;12.40;8.10;;;;;;;;;;10389528;28;20601;-77
2023/06/12 17:58:14;;;;;;;12.55;5.70;;;;;;;;;;10390958;28;20029;-76
2023/06/12 18:03:14;;;;;;;8.90;5.30;;;;;;;;;;10389337;28;20047;-77
2023/06/12 18:08:14;;;;;;;6.70;5.13;;;;;;;;;;10390240;28;20044;-76
2023/06/12 18:13:15;;;;;;;12.27;4.68;;;;;;;;;;10389753;28;20013;-80
2023/06/12 18:18:16;;;;;;;9.95;4.70;;;;;;;;;;10390158;28;20025;-77
2023/06/12 18:23:17;;;;;;;7.90;5.22;;;;;;;;;;10389683;28;20031;-77
2023/06/12 18:28:19;;;;;;;8.40;5.00;;;;;;;;;;10386536;28;20044;-76
2023/06/12 18:33:21;;;;;;;7.10;5.53;;;;;;;;;;10398869;28;20295;-76
2023/06/12 18:38:21;;;;;;;8.57;6.03;;;;;;;;;;10388873;28;20033;-75
2023/06/12 18:43:21;;;;;;;6.78;4.95;;;;;;;;;;10386906;28;20028;-76
2023/06/12 18:48:22;;;;;;;7.70;5.80;;;;;;;;;;10394998;28;20060;-78
2023/06/12 18:53:22;;;;;;;9.20;6.73;;;;;;;;;;10412320;28;20128;-77
2023/06/12 18:58:23;;;;;;;11.88;7.20;;;;;;;;;;10403826;28;20022;-76
2023/06/12 19:03:23;;;;;;;9.90;6.82;;;;;;;;;;10401890;28;20028;-75
2023/06/12 19:08:23;;;;;;;15.10;6.55;;;;;;;;;;10406144;28;20038;-79
2023/06/12 19:13:24;;;;;;;13.27;7.20;;;;;;;;;;10403678;28;20026;-76
2023/06/12 19:18:24;;;;;;;10.88;6.90;;;;;;;;;;10402915;28;20268;-81
2023/06/12 19:23:25;;;;;;;10.00;6.40;;;;;;;;;;10404549;28;20009;-76
2023/06/12 19:28:26;;;;;;;12.38;6.70;;;;;;;;;;10404418;28;20065;-79
2023/06/12 19:33:26;;;;;;;15.18;7.07;;;;;;;;;;10403992;28;20025;-76
2023/06/12 19:38:26;;;;;;;11.02;5.70;;;;;;;;;;10405124;28;20083;-80
2023/06/12 19:43:28;;;;;;;13.47;7.23;;;;;;;;;;10403769;28;20431;-79
2023/06/12 19:48:29;;;;;;;13.88;7.00;;;;;;;;;;10402815;28;20292;-80
2023/06/12 19:53:29;;;;;;;15.93;7.53;;;;;;;;;;10398995;28;20033;-76
2023/06/12 19:58:29;;;;;;;12.57;7.05;;;;;;;;;;10394367;28;20029;-77
2023/06/12 20:03:30;;;;;;;11.02;7.30;;;;;;;;;;10385920;28;20054;-75
2023/06/12 20:08:32;;;;;;;11.23;6.73;;;;;;;;;;10385504;28;20026;-76
2023/06/12 20:13:33;;;;;;;8.88;5.70;;;;;;;;;;10388185;28;20112;-83
2023/06/12 20:18:33;;;;;;;11.18;8.35;;;;;;;;;;10392870;28;20385;-76
2023/06/12 20:23:35;;;;;;;12.80;8.38;;;;;;;;;;10387303;28;20037;-80
2023/06/12 20:28:36;;;;;;;15.43;9.25;;;;;;;;;;10388246;28;20080;-77
2023/06/12 20:33:37;;;;;;;16.60;10.07;;;;;;;;;;10393230;28;20461;-83
2023/06/12 20:38:38;;;;;;;18.50;9.68;;;;;;;;;;10393550;28;20022;-81
2023/06/12 20:43:38;;;;;;;17.33;11.55;;;;;;;;;;10389061;28;20091;-76
2023/06/12 20:48:38;;;;;;;20.25;11.13;;;;;;;;;;10392210;28;20277;-77
2023/06/12 20:53:39;;;;;;;21.23;10.88;;;;;;;;;;10388213;28;20022;-80
2023/06/12 20:58:40;;;;;;;16.65;10.82;;;;;;;;;;10398579;28;20044;-75
2023/06/12 21:03:40;;;;;;;18.75;11.43;;;;;;;;;;10397329;28;20021;-75
2023/06/12 21:08:40;;;;;;;16.90;11.63;;;;;;;;;;10377149;28;20395;-77
2023/06/12 21:13:41;;;;;;;18.90;11.77;;;;;;;;;;10379189;28;20025;-79
2023/06/12 21:18:41;;;;;;;17.48;11.75;;;;;;;;;;10390481;28;20514;-76
2023/06/12 21:23:41;;;;;;;23.15;11.00;;;;;;;;;;10382182;28;20486;-76
2023/06/12 21:28:41;;;;;;;17.98;11.15;;;;;;;;;;10378707;28;20408;-75
2023/06/12 21:33:44;;;;;;;19.67;11.23;;;;;;;;;;10404676;28;20049;-76
2023/06/12 21:38:45;;;;;;;22.55;11.30;;;;;;;;;;10400653;28;20029;-78
2023/06/12 21:43:46;;;;;;;16.10;10.65;;;;;;;;;;10400254;28;20044;-75
2023/06/12 21:48:46;;;;;;;17.13;9.25;;;;;;;;;;10398087;28;20056;-73
2023/06/12 21:53:47;;;;;;;11.80;8.75;;;;;;;;;;10398892;28;20394;-76
2023/06/12 21:58:47;;;;;;;11.40;8.07;;;;;;;;;;10398113;28;20512;-75
2023/06/12 22:03:49;;;;;;;14.60;8.05;;;;;;;;;;10398433;28;20500;-74
2023/06/12 22:08:49;;;;;;;17.30;10.00;;;;;;;;;;10396316;28;20548;-75
2023/06/12 22:13:49;;;;;;;13.50;7.57;;;;;;;;;;10396779;28;20036;-78
2023/06/12 22:18:50;;;;;;;10.95;7.75;;;;;;;;;;10388166;28;20519;-79
2023/06/12 22:23:50;;;;;;;13.73;7.38;;;;;;;;;;10396727;28;20031;-81
2023/06/12 22:28:51;;;;;;;10.05;7.05;;;;;;;;;;10398062;28;20029;-75
2023/06/12 22:33:51;;;;;;;10.90;6.90;;;;;;;;;;10397908;28;20155;-78
2023/06/12 22:38:51;;;;;;;13.45;7.88;;;;;;;;;;10397794;28;20017;-75
2023/06/12 22:43:51;;;;;;;12.18;6.90;;;;;;;;;;10359364;28;20868;-77
2023/06/12 22:48:52;;;;;;;8.82;6.15;;;;;;;;;;10370863;28;20046;-79
2023/06/12 22:53:52;;;;;;;12.77;6.53;;;;;;;;;;10397165;28;20044;-75
2023/06/12 22:58:52;;;;;;;13.13;7.43;;;;;;;;;;10380286;28;20021;-79
2023/06/12 23:03:53;;;;;;;11.43;6.10;;;;;;;;;;10396817;28;20033;-74
2023/06/12 23:08:53;;;;;;;9.13;6.25;;;;;;;;;;10396164;28;20075;-80
2023/06/12 23:13:54;;;;;;;12.35;5.90;;;;;;;;;;10397143;28;20044;-77
2023/06/12 23:18:54;;;;;;;8.65;5.88;;;;;;;;;;10396517;28;20017;-79
2023/06/12 23:23:57;;;;;;;14.82;6.10;;;;;;;;;;10381275;28;20029;-76
2023/06/12 23:28:57;;;;;;;8.90;5.60;;;;;;;;;;10364889;28;20033;-81
2023/06/12 23:33:57;;;;;;;12.93;7.63;;;;;;;;;;10375129;28;20025;-80
2023/06/12 23:38:58;;;;;;;10.90;7.23;;;;;;;;;;10387874;28;20036;-77
2023/06/12 23:43:58;;;;;;;12.90;7.90;;;;;;;;;;10403841;28;20095;-76
2023/06/12 23:48:58;;;;;;;11.88;7.00;;;;;;;;;;10387362;28;20061;-83
2023/06/12 23:54:00;;;;;;;12.48;8.50;;;;;;;;;;10403253;28;20087;-83
2023/06/12 23:59:02;;;;;;;15.70;9.13;;;;;;;;;;10405293;28;20018;-76
